Time;durP1;ratioP1;P1;durP2;ratioP2;P2;SDS_P1;SDS_P2;PMS_P1;PMS_P2;Temp;Humidity;BMP_temperature;BMP_pressure;BME280_temperature;BME280_humidity;BME280_pressure;Samples;Min_cycle;Max_cycle;Signal;HPM_P1;HPM_P2
2021/05/17 00:00:31;;;;;;;1.50;1.03;;;11.00;98.20;;;;;;5013537;28;20460;-82
2021/05/17 00:03:00;;;;;;;1.50;1.10;;;11.00;98.20;;;;;;5011070;28;21137;-82
2021/05/17 00:05:27;;;;;;;1.50;1.10;;;11.00;98.20;;;;;;5013733;28;20475;-83
2021/05/17 00:07:53;;;;;;;1.50;1.10;;;10.90;98.20;;;;;;5015401;28;20479;-81
2021/05/17 00:10:22;;;;;;;1.50;1.10;;;10.90;98.20;;;;;;5015141;28;20901;-81
2021/05/17 00:12:49;;;;;;;1.50;1.10;;;10.90;98.20;;;;;;5016545;28;20573;-83
2021/05/17 00:15:18;;;;;;;1.50;1.10;;;10.90;98.20;;;;;;5012411;28;20468;-80
2021/05/17 00:17:45;;;;;;;1.50;1.13;;;10.90;98.20;;;;;;5019539;28;20976;-83
2021/05/17 00:20:14;;;;;;;1.50;1.00;;;10.90;98.20;;;;;;5015146;28;20464;-82
2021/05/17 00:22:42;;;;;;;1.50;1.10;;;10.90;98.20;;;;;;5019449;28;20553;-82
2021/05/17 00:25:09;;;;;;;1.50;1.03;;;10.90;98.20;;;;;;5015847;28;20495;-79
2021/05/17 00:27:37;;;;;;;1.50;1.20;;;11.00;98.20;;;;;;5021464;28;20483;-84
2021/05/17 00:30:05;;;;;;;1.50;1.10;;;11.00;98.20;;;;;;5017179;28;20953;-81
2021/05/17 00:32:32;;;;;;;1.50;1.10;;;11.00;98.20;;;;;;5017224;28;20536;-83
2021/05/17 00:34:58;;;;;;;1.50;1.00;;;11.00;98.20;;;;;;5011008;28;20617;-81
2021/05/17 00:37:25;;;;;;;1.50;1.10;;;11.00;98.20;;;;;;5014067;28;20487;-82
2021/05/17 00:39:51;;;;;;;1.50;1.10;;;10.90;98.20;;;;;;5018047;28;20472;-79
2021/05/17 00:42:19;;;;;;;1.50;1.10;;;11.00;98.20;;;;;;5008902;28;20487;-83
2021/05/17 00:44:47;;;;;;;1.50;1.00;;;11.00;98.20;;;;;;5023952;28;20499;-83
2021/05/17 00:47:16;;;;;;;1.50;1.10;;;11.00;98.20;;;;;;5017919;28;20494;-84
2021/05/17 00:49:44;;;;;;;1.50;1.10;;;11.00;98.20;;;;;;5023992;28;20471;-83
2021/05/17 00:52:11;;;;;;;1.50;1.00;;;11.00;98.20;;;;;;5013369;28;20493;-84
2021/05/17 00:54:37;;;;;;;1.50;1.10;;;11.00;98.20;;;;;;5017951;28;20465;-84
2021/05/17 00:57:05;;;;;;;1.50;1.10;;;11.00;98.20;;;;;;5015259;28;20471;-83
2021/05/17 00:59:32;;;;;;;1.50;1.00;;;11.00;98.20;;;;;;5015031;28;20467;-83
2021/05/17 01:02:00;;;;;;;1.50;1.10;;;11.00;98.20;;;;;;5010914;28;20909;-81
2021/05/17 01:04:26;;;;;;;1.50;1.10;;;11.00;98.20;;;;;;5024001;28;20463;-83
2021/05/17 01:06:54;;;;;;;1.50;1.10;;;11.00;98.20;;;;;;5004910;28;20486;-79
2021/05/17 01:09:21;;;;;;;1.50;1.10;;;11.00;98.20;;;;;;5020547;28;20598;-83
2021/05/17 01:11:48;;;;;;;1.50;1.03;;;11.00;98.20;;;;;;5009372;28;20493;-80
2021/05/17 01:14:14;;;;;;;1.50;1.10;;;11.00;98.20;;;;;;5020552;28;21172;-81
2021/05/17 01:16:41;;;;;;;1.50;1.10;;;11.00;98.20;;;;;;5004935;28;20480;-80
2021/05/17 01:19:11;;;;;;;1.50;1.10;;;11.00;98.20;;;;;;5019304;28;20460;-80
2021/05/17 01:21:40;;;;;;;1.50;1.00;;;11.00;98.20;;;;;;5003286;28;20525;-79
2021/05/17 01:24:09;;;;;;;1.50;1.10;;;11.00;98.20;;;;;;5014044;28;20456;-80
2021/05/17 01:26:37;;;;;;;1.50;1.10;;;11.00;98.20;;;;;;5005221;28;20483;-80
2021/05/17 01:29:05;;;;;;;1.50;1.10;;;11.00;98.20;;;;;;5017978;28;20468;-80
2021/05/17 01:31:32;;;;;;;1.50;1.10;;;11.00;98.20;;;;;;4997165;28;20510;-81
2021/05/17 01:33:59;;;;;;;1.50;1.20;;;11.00;98.20;;;;;;5017954;28;20491;-80
2021/05/17 01:36:26;;;;;;;1.50;1.10;;;11.10;98.20;;;;;;5005782;28;20526;-78
2021/05/17 01:38:54;;;;;;;1.50;1.10;;;11.10;98.20;;;;;;5014542;28;20476;-81
2021/05/17 01:41:23;;;;;;;1.50;1.10;;;11.10;98.20;;;;;;4995094;28;20561;-78
2021/05/17 01:43:53;;;;;;;1.50;1.10;;;11.10;98.20;;;;;;5017947;28;20513;-77
2021/05/17 01:46:23;;;;;;;1.50;1.10;;;11.10;98.20;;;;;;5007335;28;20502;-78
2021/05/17 01:48:49;;;;;;;1.50;1.10;;;11.20;98.20;;;;;;5022558;28;20588;-81
2021/05/17 01:51:17;;;;;;;1.50;1.10;;;11.20;98.20;;;;;;5007076;28;20481;-82
2021/05/17 01:53:45;;;;;;;1.50;1.10;;;11.20;98.20;;;;;;5024410;28;20546;-81
2021/05/17 01:56:13;;;;;;;1.50;1.10;;;11.20;98.20;;;;;;5008324;28;20475;-80
2021/05/17 01:58:40;;;;;;;1.50;1.10;;;11.10;98.20;;;;;;5024670;28;21001;-82
2021/05/17 02:01:08;;;;;;;1.50;1.10;;;11.20;98.20;;;;;;5004778;28;20545;-78
2021/05/17 02:03:36;;;;;;;1.50;1.00;;;11.20;98.20;;;;;;5024041;28;20456;-80
2021/05/17 02:06:03;;;;;;;1.50;1.00;;;11.10;98.20;;;;;;5003189;28;20475;-81
2021/05/17 02:08:33;;;;;;;1.50;1.00;;;11.10;98.20;;;;;;5022909;28;20470;-82
2021/05/17 02:11:01;;;;;;;1.50;1.00;;;11.10;98.20;;;;;;5007311;28;20491;-81
2021/05/17 02:13:28;;;;;;;1.50;1.20;;;11.10;98.20;;;;;;5027251;28;20984;-79
2021/05/17 02:15:55;;;;;;;1.50;1.20;;;11.10;98.20;;;;;;5003823;28;20460;-80
2021/05/17 02:18:22;;;;;;;1.50;1.10;;;11.10;98.20;;;;;;5024323;28;20487;-81
2021/05/17 02:20:50;;;;;;;1.50;1.00;;;11.10;98.20;;;;;;5005113;28;20456;-82
2021/05/17 02:23:18;;;;;;;1.50;1.10;;;11.10;98.20;;;;;;5020215;28;20456;-78
2021/05/17 02:25:46;;;;;;;1.50;1.10;;;11.10;98.20;;;;;;5013919;28;20472;-79
2021/05/17 02:28:13;;;;;;;1.50;1.00;;;11.10;98.20;;;;;;5003299;28;20464;-82
2021/05/17 02:30:41;;;;;;;1.50;1.07;;;11.10;98.20;;;;;;5011206;28;20476;-82
2021/05/17 02:33:09;;;;;;;1.50;1.20;;;11.10;98.20;;;;;;5013467;28;20484;-78
2021/05/17 02:35:37;;;;;;;1.50;1.00;;;11.10;98.20;;;;;;5010712;28;20888;-79
2021/05/17 02:38:05;;;;;;;1.50;1.10;;;11.10;98.20;;;;;;5020635;28;20514;-80
2021/05/17 02:40:31;;;;;;;1.50;1.00;;;11.10;98.20;;;;;;5004739;28;20461;-80
2021/05/17 02:43:01;;;;;;;1.50;1.10;;;11.10;98.20;;;;;;5014653;28;20523;-82
2021/05/17 02:45:28;;;;;;;1.50;1.10;;;11.10;98.20;;;;;;5010598;28;20728;-82
2021/05/17 02:47:56;;;;;;;1.50;1.20;;;11.10;98.20;;;;;;5015182;28;20483;-79
2021/05/17 02:50:31;;;;;;;1.50;1.00;;;11.10;98.20;;;;;;5010276;28;20467;-79
2021/05/17 02:52:58;;;;;;;1.50;1.00;;;11.10;98.20;;;;;;5009507;28;20488;-78
2021/05/17 02:55:30;;;;;;;1.50;1.00;;;11.10;98.20;;;;;;5013857;28;20468;-79
2021/05/17 02:58:04;;;;;;;1.50;1.03;;;11.10;98.20;;;;;;5016224;28;20641;-81
2021/05/17 03:00:33;;;;;;;1.50;1.10;;;11.10;98.20;;;;;;5006109;28;20465;-79
2021/05/17 03:03:03;;;;;;;1.50;1.10;;;11.10;98.20;;;;;;5008652;28;20480;-80
2021/05/17 03:05:33;;;;;;;1.50;1.10;;;11.10;98.20;;;;;;5004424;28;20535;-81
2021/05/17 03:08:02;;;;;;;1.50;1.00;;;11.10;98.20;;;;;;5009546;28;20578;-79
2021/05/17 03:10:30;;;;;;;1.50;1.00;;;11.00;98.20;;;;;;5009424;28;20476;-81
2021/05/17 03:12:58;;;;;;;1.50;1.10;;;11.00;98.20;;;;;;5007395;28;20483;-79
2021/05/17 03:15:27;;;;;;;1.50;1.10;;;11.00;98.20;;;;;;5009779;28;20468;-82
2021/05/17 03:17:55;;;;;;;1.50;1.10;;;11.00;98.20;;;;;;5017520;28;21528;-81
2021/05/17 03:20:22;;;;;;;1.50;1.00;;;11.00;98.20;;;;;;5008219;28;20471;-78
2021/05/17 03:22:52;;;;;;;1.50;1.10;;;11.00;98.20;;;;;;5019310;28;20545;-80
2021/05/17 03:25:22;;;;;;;1.50;1.10;;;11.00;98.20;;;;;;5012107;28;20471;-82
2021/05/17 03:27:48;;;;;;;1.50;1.00;;;11.00;98.20;;;;;;5011227;28;21017;-79
2021/05/17 03:30:16;;;;;;;1.50;1.00;;;11.00;98.20;;;;;;5014968;28;20464;-82
2021/05/17 03:32:43;;;;;;;1.50;1.10;;;11.00;98.20;;;;;;5016433;28;20529;-82
2021/05/17 03:35:09;;;;;;;1.50;1.00;;;11.00;98.20;;;;;;5009743;28;20461;-81
2021/05/17 03:37:36;;;;;;;1.50;1.10;;;11.00;98.20;;;;;;5017478;28;20558;-79
2021/05/17 03:40:04;;;;;;;1.50;1.10;;;11.00;98.20;;;;;;5012791;28;20472;-80
2021/05/17 03:42:31;;;;;;;1.50;1.10;;;11.00;98.20;;;;;;5003935;28;20804;-81
2021/05/17 03:44:57;;;;;;;1.50;1.10;;;11.00;98.20;;;;;;5012423;28;20460;-79
2021/05/17 03:47:23;;;;;;;1.50;1.10;;;11.00;98.20;;;;;;5014576;28;20498;-80
2021/05/17 03:49:50;;;;;;;1.50;1.10;;;11.00;98.20;;;;;;5011621;28;20475;-81
2021/05/17 03:52:16;;;;;;;1.50;1.20;;;11.00;98.20;;;;;;5005156;28;20483;-81
2021/05/17 03:54:42;;;;;;;1.50;1.03;;;11.00;98.20;;;;;;5014798;28;20522;-78
2021/05/17 03:57:09;;;;;;;1.50;1.10;;;11.10;98.20;;;;;;5010418;28;20475;-81
2021/05/17 03:59:36;;;;;;;1.50;1.10;;;11.10;98.20;;;;;;5011391;28;20460;-80
2021/05/17 04:02:03;;;;;;;1.50;1.10;;;11.10;98.20;;;;;;5001333;28;20574;-77
2021/05/17 04:04:35;;;;;;;1.50;1.10;;;11.10;98.20;;;;;;5009955;28;20518;-80
2021/05/17 04:07:07;;;;;;;1.50;1.07;;;11.10;98.20;;;;;;5003496;28;20539;-81
2021/05/17 04:13:18;;;;;;;1.50;1.20;;;11.00;98.20;;;;;;5006604;28;20490;-78
2021/05/17 04:15:19;;;;;;;1.50;1.20;;;11.10;98.20;;;;;;5007735;28;20538;-81
2021/05/17 04:17:46;;;;;;;1.50;1.10;;;11.10;98.20;;;;;;5014346;28;20777;-81
2021/05/17 04:20:13;;;;;;;1.50;1.00;;;11.10;98.20;;;;;;5011230;28;20507;-81
2021/05/17 04:22:39;;;;;;;1.50;1.10;;;11.20;98.20;;;;;;5008497;28;20479;-81
2021/05/17 04:25:07;;;;;;;1.50;1.10;;;11.20;98.20;;;;;;5006825;28;20494;-82
2021/05/17 04:27:34;;;;;;;1.50;1.10;;;11.20;98.20;;;;;;5011509;28;20485;-81
2021/05/17 04:30:00;;;;;;;1.50;1.10;;;11.30;98.20;;;;;;5008402;28;20700;-81
2021/05/17 04:32:26;;;;;;;1.50;1.00;;;11.30;98.20;;;;;;5011212;28;20487;-81
2021/05/17 04:34:53;;;;;;;1.50;1.00;;;11.30;98.20;;;;;;5010341;28;20470;-80
2021/05/17 04:37:19;;;;;;;1.50;1.00;;;11.40;98.20;;;;;;5009082;28;20566;-79
2021/05/17 04:39:48;;;;;;;1.50;1.10;;;11.40;98.20;;;;;;5010241;28;20468;-79
2021/05/17 04:42:15;;;;;;;1.50;1.10;;;11.40;98.20;;;;;;5006710;28;20487;-82
2021/05/17 04:44:42;;;;;;;1.50;1.10;;;11.50;98.20;;;;;;5012489;28;20468;-79
2021/05/17 04:47:08;;;;;;;1.50;1.00;;;11.50;98.20;;;;;;5003642;28;20488;-80
2021/05/17 04:49:34;;;;;;;1.50;1.10;;;11.50;98.20;;;;;;5015956;28;20495;-80
2021/05/17 04:52:01;;;;;;;1.50;1.00;;;11.50;98.20;;;;;;5006978;28;20766;-80
2021/05/17 04:54:27;;;;;;;2.03;1.83;;;11.60;98.20;;;;;;5016030;28;20486;-79
2021/05/17 04:56:53;;;;;;;1.50;1.00;;;11.60;98.20;;;;;;5000542;28;20497;-79
2021/05/17 04:59:20;;;;;;;1.50;1.00;;;11.60;98.20;;;;;;5015445;28;20499;-80
2021/05/17 05:01:47;;;;;;;1.50;1.00;;;11.70;98.20;;;;;;5001320;28;20550;-79
2021/05/17 05:04:13;;;;;;;1.50;1.10;;;11.70;98.20;;;;;;5010291;28;20571;-80
2021/05/17 05:06:40;;;;;;;1.50;0.90;;;11.80;98.20;;;;;;5007542;28;20486;-81
2021/05/17 05:09:06;;;;;;;1.50;1.00;;;11.80;98.20;;;;;;5014749;28;20559;-78
2021/05/17 05:11:32;;;;;;;1.50;1.00;;;11.80;98.20;;;;;;5005119;28;20541;-81
2021/05/17 05:14:02;;;;;;;1.50;1.00;;;11.80;98.20;;;;;;5016559;28;20484;-80
2021/05/17 05:16:28;;;;;;;1.50;1.00;;;11.80;98.20;;;;;;5005525;28;21030;-79
2021/05/17 05:18:55;;;;;;;1.50;1.00;;;11.80;98.20;;;;;;5006761;28;20464;-80
2021/05/17 05:21:22;;;;;;;1.50;1.07;;;11.80;98.20;;;;;;5001837;28;20868;-79
2021/05/17 05:23:48;;;;;;;1.50;1.00;;;11.80;98.20;;;;;;5016621;28;20467;-79
2021/05/17 05:29:06;;;;;;;1.50;1.00;;;11.90;98.20;;;;;;5002838;28;20746;-82
2021/05/17 05:31:37;;;;;;;1.70;1.50;;;11.90;98.20;;;;;;5000206;28;20508;-81
2021/05/17 05:34:04;;;;;;;1.50;1.10;;;12.00;98.20;;;;;;5011236;28;20491;-79
2021/05/17 05:36:31;;;;;;;1.50;1.00;;;12.00;98.20;;;;;;5003567;28;20514;-79
2021/05/17 05:38:58;;;;;;;1.50;1.00;;;12.00;98.20;;;;;;5011381;28;20518;-79
2021/05/17 05:41:24;;;;;;;1.50;1.00;;;12.10;98.20;;;;;;5005360;28;20528;-79
2021/05/17 05:43:50;;;;;;;1.50;1.00;;;12.10;98.20;;;;;;5017480;28;20475;-82
2021/05/17 05:46:16;;;;;;;1.50;1.10;;;12.10;98.20;;;;;;4999727;28;20572;-79
2021/05/17 05:48:49;;;;;;;1.50;1.00;;;12.20;98.20;;;;;;5017493;28;20488;-81
2021/05/17 05:51:18;;;;;;;1.50;1.07;;;12.20;98.20;;;;;;5000681;28;20479;-80
2021/05/17 05:53:45;;;;;;;1.50;1.00;;;12.30;98.20;;;;;;5013296;28;20599;-81
2021/05/17 05:56:12;;;;;;;1.50;0.93;;;12.40;98.20;;;;;;5000820;28;20501;-79
2021/05/17 05:58:38;;;;;;;1.50;1.10;;;12.40;98.20;;;;;;5016843;28;20542;-80
2021/05/17 06:01:05;;;;;;;1.50;1.00;;;12.50;98.20;;;;;;5000302;28;20483;-80
2021/05/17 06:03:31;;;;;;;1.50;1.00;;;12.50;98.20;;;;;;5017735;28;20460;-81
2021/05/17 06:05:58;;;;;;;1.50;1.00;;;12.60;98.20;;;;;;4997890;28;20471;-80
2021/05/17 06:08:25;;;;;;;1.50;1.00;;;12.60;98.20;;;;;;5020918;28;21033;-80
2021/05/17 06:10:52;;;;;;;1.53;1.00;;;12.70;98.20;;;;;;4996933;28;20547;-80
2021/05/17 06:13:19;;;;;;;1.50;1.00;;;12.80;98.20;;;;;;5015308;28;21042;-81
2021/05/17 06:15:46;;;;;;;1.50;1.10;;;12.80;98.20;;;;;;5003580;28;20489;-81
2021/05/17 06:18:14;;;;;;;1.53;1.10;;;12.80;98.20;;;;;;4998229;28;20491;-80
2021/05/17 06:20:41;;;;;;;1.50;1.00;;;12.90;98.20;;;;;;5007188;28;20472;-78
2021/05/17 06:23:08;;;;;;;1.50;1.00;;;12.90;98.20;;;;;;5010481;28;20488;-80
2021/05/17 06:25:36;;;;;;;1.50;1.00;;;12.90;98.20;;;;;;5011450;28;20960;-77
2021/05/17 06:28:03;;;;;;;1.50;1.00;;;13.00;98.20;;;;;;5016438;28;20498;-80
2021/05/17 06:30:31;;;;;;;1.50;1.00;;;13.00;98.20;;;;;;5012917;28;20456;-83
2021/05/17 06:32:58;;;;;;;1.50;1.00;;;13.10;98.20;;;;;;5014331;28;20562;-79
2021/05/17 06:35:26;;;;;;;1.50;1.00;;;13.20;98.20;;;;;;5011592;28;20626;-79
2021/05/17 06:37:53;;;;;;;1.50;1.00;;;13.30;98.20;;;;;;5007109;28;20520;-79
2021/05/17 06:40:20;;;;;;;1.50;1.00;;;13.30;98.20;;;;;;5008456;28;20510;-79
2021/05/17 06:42:48;;;;;;;1.50;1.00;;;13.40;98.20;;;;;;5014284;28;20894;-79
2021/05/17 06:45:15;;;;;;;1.50;1.00;;;13.40;98.20;;;;;;5004551;28;20475;-81
2021/05/17 06:47:43;;;;;;;1.50;0.93;;;13.50;98.20;;;;;;5010174;28;20483;-80
2021/05/17 06:50:11;;;;;;;1.50;0.90;;;13.50;98.20;;;;;;5005842;28;20479;-80
2021/05/17 06:52:39;;;;;;;1.57;1.10;;;13.60;98.20;;;;;;5012007;28;20494;-78
2021/05/17 06:55:14;;;;;;;1.50;1.00;;;13.60;98.20;;;;;;5012840;28;20464;-80
2021/05/17 06:57:50;;;;;;;1.50;1.00;;;13.50;98.20;;;;;;5023879;28;20572;-79
2021/05/17 07:00:25;;;;;;;1.57;1.00;;;13.60;98.20;;;;;;5012395;28;20490;-80
2021/05/17 07:02:52;;;;;;;1.50;1.00;;;13.60;98.20;;;;;;5016452;28;21005;-80
2021/05/17 07:05:21;;;;;;;1.50;1.00;;;13.60;98.20;;;;;;5010040;28;20487;-82
2021/05/17 07:07:56;;;;;;;1.50;1.07;;;13.60;98.20;;;;;;5015788;28;20483;-82
2021/05/17 07:13:09;;;;;;;1.53;1.00;;;13.70;98.20;;;;;;5013857;28;20526;-81
2021/05/17 07:15:36;;;;;;;1.50;1.00;;;13.80;98.20;;;;;;5011386;28;20471;-81
2021/05/17 07:18:02;;;;;;;1.50;0.93;;;13.80;98.20;;;;;;5022482;28;20494;-80
2021/05/17 07:20:35;;;;;;;1.50;1.00;;;13.90;98.20;;;;;;5006614;28;20468;-81
2021/05/17 07:25:46;;;;;;;1.53;1.07;;;14.00;97.50;;;;;;5001306;28;20459;-80
2021/05/17 07:28:12;;;;;;;1.53;1.00;;;14.10;95.80;;;;;;5022225;28;20476;-80
2021/05/17 07:30:41;;;;;;;1.50;0.90;;;14.20;95.80;;;;;;5010291;28;20472;-81
2021/05/17 07:33:07;;;;;;;1.50;1.00;;;14.20;95.30;;;;;;5014544;28;20476;-80
2021/05/17 07:35:33;;;;;;;1.50;1.00;;;14.30;94.80;;;;;;5013519;28;20731;-82
2021/05/17 07:38:00;;;;;;;1.50;0.90;;;14.40;94.90;;;;;;5013623;28;20489;-80
2021/05/17 07:40:26;;;;;;;1.50;1.00;;;14.50;94.00;;;;;;5011163;28;20479;-79
2021/05/17 07:42:52;;;;;;;1.50;1.00;;;14.70;93.80;;;;;;5010601;28;20488;-80
2021/05/17 07:45:18;;;;;;;1.50;1.00;;;14.80;93.00;;;;;;5011115;28;20547;-82
2021/05/17 07:47:46;;;;;;;1.50;1.00;;;14.80;91.80;;;;;;5014440;28;20489;-80
2021/05/17 07:50:12;;;;;;;1.50;1.00;;;14.80;92.40;;;;;;5012491;28;20460;-82
2021/05/17 07:52:38;;;;;;;1.50;1.00;;;14.90;92.80;;;;;;5010688;28;20499;-81
2021/05/17 07:55:06;;;;;;;1.50;1.00;;;15.10;92.50;;;;;;5010037;28;20982;-80
2021/05/17 07:57:32;;;;;;;1.50;1.00;;;15.20;91.30;;;;;;5008959;28;20833;-80
2021/05/17 07:59:59;;;;;;;1.50;0.90;;;15.40;91.40;;;;;;5012788;28;20575;-83
2021/05/17 08:02:25;;;;;;;1.50;0.90;;;15.50;91.40;;;;;;5013699;28;20957;-79
2021/05/17 08:04:52;;;;;;;1.50;1.00;;;15.50;90.40;;;;;;5012932;28;20460;-82
2021/05/17 08:07:19;;;;;;;1.50;1.00;;;15.50;90.70;;;;;;5014423;28;20479;-80
2021/05/17 08:09:45;;;;;;;1.60;1.30;;;15.60;91.10;;;;;;5013844;28;20464;-81
2021/05/17 08:12:12;;;;;;;1.50;1.00;;;15.60;90.60;;;;;;5011344;28;20927;-82
2021/05/17 08:14:39;;;;;;;1.50;1.00;;;15.60;90.60;;;;;;5014755;28;20866;-81
2021/05/17 08:17:06;;;;;;;1.50;1.00;;;15.60;91.00;;;;;;5009641;28;20490;-81
2021/05/17 08:19:33;;;;;;;1.50;1.00;;;15.60;89.30;;;;;;5016064;28;20867;-82
2021/05/17 08:22:00;;;;;;;1.50;1.00;;;15.50;89.40;;;;;;5009583;28;20494;-81
2021/05/17 08:24:27;;;;;;;1.50;1.00;;;15.50;90.20;;;;;;5013833;28;20448;-79
2021/05/17 08:26:54;;;;;;;1.50;0.90;;;15.40;90.20;;;;;;5007407;28;20518;-81
2021/05/17 08:29:21;;;;;;;1.50;1.00;;;15.40;90.30;;;;;;5015758;28;20460;-81
2021/05/17 08:31:49;;;;;;;1.50;1.00;;;15.20;89.90;;;;;;5007780;28;20545;-81
2021/05/17 08:34:16;;;;;;;1.50;0.93;;;15.10;91.70;;;;;;5018174;28;20488;-81
2021/05/17 08:36:42;;;;;;;1.50;1.00;;;15.00;92.10;;;;;;5008321;28;20475;-82
2021/05/17 08:39:10;;;;;;;1.50;1.00;;;14.90;92.70;;;;;;5021065;28;20557;-79
2021/05/17 08:41:37;;;;;;;1.50;1.00;;;14.70;94.20;;;;;;5006640;28;20537;-81
2021/05/17 08:44:04;;;;;;;1.50;1.00;;;14.60;95.20;;;;;;5022119;28;20460;-82
2021/05/17 08:46:31;;;;;;;1.50;1.00;;;14.60;96.00;;;;;;5006705;28;20583;-77
2021/05/17 08:48:57;;;;;;;1.50;0.90;;;14.50;96.80;;;;;;5020763;28;20475;-79
2021/05/17 08:51:26;;;;;;;1.50;1.00;;;14.60;97.30;;;;;;5008856;28;20516;-79
2021/05/17 08:53:53;;;;;;;1.50;1.00;;;14.70;97.60;;;;;;5025099;28;20586;-80
2021/05/17 08:56:22;;;;;;;1.50;0.90;;;14.80;97.00;;;;;;5007169;28;21017;-81
2021/05/17 08:58:53;;;;;;;1.50;1.00;;;14.90;96.50;;;;;;5024935;28;20451;-81
2021/05/17 09:01:20;;;;;;;1.50;1.00;;;15.00;94.90;;;;;;5008314;28;20485;-81
2021/05/17 09:03:53;;;;;;;1.50;0.93;;;15.00;96.40;;;;;;5019881;28;20468;-78
2021/05/17 09:06:22;;;;;;;1.50;1.00;;;15.10;95.40;;;;;;5008118;28;21008;-79
2021/05/17 09:08:49;;;;;;;1.50;1.00;;;15.20;95.20;;;;;;5022450;28;21007;-80
2021/05/17 09:11:31;;;;;;;1.50;0.90;;;15.20;95.60;;;;;;5008207;28;20630;-83
2021/05/17 09:14:08;;;;;;;1.50;0.90;;;15.40;95.00;;;;;;5015812;28;20488;-80
2021/05/17 09:16:47;;;;;;;1.50;1.00;;;15.60;94.30;;;;;;4999730;28;20475;-80
2021/05/17 09:19:14;;;;;;;1.50;1.00;;;15.70;93.20;;;;;;5016464;28;20705;-78
2021/05/17 09:22:01;;;;;;;1.50;0.90;;;15.80;92.90;;;;;;5010623;28;20936;-82
2021/05/17 09:24:46;;;;;;;1.50;0.90;;;16.10;93.20;;;;;;5019921;28;20506;-81
2021/05/17 09:27:16;;;;;;;1.50;0.90;;;16.40;92.90;;;;;;5011406;28;20522;-82
2021/05/17 09:29:44;;;;;;;1.60;1.10;;;16.80;91.30;;;;;;5014207;28;20464;-83
2021/05/17 09:32:24;;;;;;;1.50;1.00;;;17.10;89.20;;;;;;5008556;28;20548;-81
2021/05/17 09:34:59;;;;;;;1.50;0.90;;;17.30;86.50;;;;;;5013525;28;20487;-81
2021/05/17 09:37:26;;;;;;;1.50;0.90;;;17.30;86.90;;;;;;5009710;28;20957;-80
2021/05/17 09:39:54;;;;;;;1.50;1.00;;;17.30;86.00;;;;;;5018773;28;20474;-81
2021/05/17 09:42:22;;;;;;;1.50;0.90;;;17.20;86.10;;;;;;5005835;28;20483;-78
2021/05/17 09:44:50;;;;;;;1.50;0.97;;;17.10;86.00;;;;;;5018142;28;20874;-81
2021/05/17 09:47:19;;;;;;;1.50;1.00;;;16.90;86.60;;;;;;5014213;28;20530;-78
2021/05/17 09:49:51;;;;;;;1.50;1.00;;;16.80;86.60;;;;;;5012482;28;20491;-81
2021/05/17 09:52:20;;;;;;;1.50;1.00;;;16.80;86.40;;;;;;5017311;28;20566;-79
2021/05/17 09:54:51;;;;;;;1.50;0.90;;;16.90;86.40;;;;;;5017781;28;20492;-81
2021/05/17 09:57:19;;;;;;;1.50;0.90;;;17.00;87.60;;;;;;5015481;28;20490;-79
2021/05/17 09:59:47;;;;;;;1.50;0.93;;;17.20;86.50;;;;;;5014795;28;20468;-80
2021/05/17 10:02:31;;;;;;;1.50;0.90;;;17.40;85.60;;;;;;5014588;28;20499;-81
2021/05/17 10:04:57;;;;;;;1.50;0.90;;;17.60;85.10;;;;;;5014264;28;20468;-80
2021/05/17 10:07:24;;;;;;;1.50;1.00;;;17.60;84.30;;;;;;5013475;28;20729;-80
2021/05/17 10:09:51;;;;;;;1.50;1.00;;;17.70;85.60;;;;;;5014083;28;20467;-80
2021/05/17 10:12:19;;;;;;;1.50;0.90;;;17.80;85.10;;;;;;5005872;28;21029;-80
2021/05/17 10:14:46;;;;;;;1.50;0.90;;;17.90;83.10;;;;;;5011448;28;20535;-80
2021/05/17 10:17:13;;;;;;;1.50;1.00;;;17.80;83.70;;;;;;5016249;28;20490;-82
2021/05/17 10:19:40;;;;;;;1.50;0.90;;;17.60;87.30;;;;;;5014676;28;20465;-80
2021/05/17 10:22:07;;;;;;;1.50;1.00;;;17.20;88.90;;;;;;5010308;28;20504;-80
2021/05/17 10:24:34;;;;;;;1.50;0.93;;;16.80;90.80;;;;;;5011034;28;20471;-81
2021/05/17 10:27:02;;;;;;;1.50;1.00;;;16.60;92.20;;;;;;5009058;28;21230;-81
2021/05/17 10:29:33;;;;;;;1.50;0.90;;;16.50;94.40;;;;;;5018631;28;20651;-81
2021/05/17 10:32:01;;;;;;;1.50;1.00;;;16.40;95.60;;;;;;5006346;28;20507;-81
2021/05/17 10:34:28;;;;;;;1.50;1.10;;;16.50;96.40;;;;;;5018667;28;20483;-79
2021/05/17 10:36:57;;;;;;;1.50;1.00;;;16.40;96.50;;;;;;4998552;28;20853;-81
2021/05/17 10:39:28;;;;;;;1.50;0.97;;;16.30;95.40;;;;;;5013119;28;20471;-81
2021/05/17 10:42:05;;;;;;;1.50;1.00;;;16.30;95.30;;;;;;5010820;28;20479;-81
2021/05/17 10:47:39;;;;;;;1.50;0.90;;;16.10;95.80;;;;;;4998844;28;20480;-80
2021/05/17 10:50:13;;;;;;;1.50;1.00;;;16.20;96.80;;;;;;5007936;28;20471;-79
2021/05/17 10:52:40;;;;;;;1.50;0.90;;;16.30;96.10;;;;;;5007889;28;20731;-80
2021/05/17 10:55:12;;;;;;;1.50;0.90;;;16.40;95.70;;;;;;5007622;28;20484;-79
2021/05/17 10:58:06;;;;;;;1.50;0.97;;;16.30;95.70;;;;;;5007872;28;20570;-80
2021/05/17 11:00:34;;;;;;;1.50;1.00;;;16.10;93.80;;;;;;5004765;28;20468;-80
2021/05/17 11:03:09;;;;;;;1.50;0.90;;;15.90;94.50;;;;;;5007328;28;20495;-80
2021/05/17 11:05:41;;;;;;;1.50;0.90;;;16.10;96.40;;;;;;5007999;28;20464;-80
2021/05/17 11:08:08;;;;;;;1.50;1.00;;;16.50;94.20;;;;;;5012128;28;20692;-80
2021/05/17 11:10:37;;;;;;;1.50;0.97;;;16.70;93.00;;;;;;5009722;28;20514;-80
2021/05/17 11:13:23;;;;;;;1.50;0.90;;;16.90;90.10;;;;;;5006994;28;21086;-80
2021/05/17 11:16:02;;;;;;;1.50;0.90;;;17.00;89.80;;;;;;4995072;28;20471;-80
2021/05/17 11:18:32;;;;;;;1.50;0.90;;;16.80;89.70;;;;;;5019034;28;20468;-80
2021/05/17 11:21:02;;;;;;;1.50;1.00;;;16.80;89.60;;;;;;4996074;28;20488;-80
2021/05/17 11:23:47;;;;;;;1.50;0.97;;;16.70;89.90;;;;;;5017905;28;20944;-79
2021/05/17 11:26:15;;;;;;;1.50;0.90;;;16.40;89.60;;;;;;4996970;28;20500;-80
2021/05/17 11:29:00;;;;;;;1.50;0.90;;;16.20;90.10;;;;;;5013209;28;20498;-79
2021/05/17 11:31:35;;;;;;;1.50;0.90;;;16.10;91.40;;;;;;5000983;28;20502;-80
2021/05/17 11:34:13;;;;;;;1.50;0.90;;;16.10;91.80;;;;;;5013748;28;20848;-80
2021/05/17 11:36:42;;;;;;;1.50;0.90;;;16.20;92.90;;;;;;4995933;28;20919;-81
2021/05/17 11:39:15;;;;;;;1.50;1.00;;;16.10;91.50;;;;;;5006709;28;20456;-82
2021/05/17 11:41:46;;;;;;;1.50;0.93;;;16.00;92.40;;;;;;5000202;28;20487;-80
2021/05/17 11:44:14;;;;;;;1.50;1.00;;;15.90;94.20;;;;;;5010327;28;20459;-81
2021/05/17 11:46:42;;;;;;;1.50;1.00;;;15.80;94.20;;;;;;4998424;28;21195;-78
2021/05/17 11:49:14;;;;;;;1.50;1.00;;;15.60;95.30;;;;;;5005699;28;20460;-80
2021/05/17 11:51:41;;;;;;;1.50;1.00;;;15.40;96.00;;;;;;4998141;28;20578;-81
2021/05/17 11:54:08;;;;;;;1.50;1.00;;;15.10;97.10;;;;;;5011720;28;20492;-78
2021/05/17 11:56:36;;;;;;;1.50;1.00;;;15.00;97.50;;;;;;4996109;28;20486;-77
2021/05/17 11:59:12;;;;;;;1.50;1.00;;;14.80;98.20;;;;;;5008883;28;20500;-79
2021/05/17 12:01:40;;;;;;;1.50;1.00;;;14.70;98.20;;;;;;5000926;28;20494;-78
2021/05/17 12:04:21;;;;;;;1.50;0.90;;;14.60;98.20;;;;;;5012059;28;20715;-78
2021/05/17 12:06:50;;;;;;;1.50;1.00;;;14.50;98.20;;;;;;5000410;28;20564;-78
2021/05/17 12:09:41;;;;;;;1.50;1.00;;;14.50;98.20;;;;;;5016070;28;20464;-78
2021/05/17 12:12:10;;;;;;;1.50;0.90;;;14.70;98.20;;;;;;4999399;28;20535;-78
2021/05/17 12:14:39;;;;;;;1.50;1.00;;;14.90;98.20;;;;;;5002752;28;20550;-78
2021/05/17 12:17:10;;;;;;;1.50;1.00;;;15.10;98.20;;;;;;5001227;28;20495;-79
2021/05/17 12:19:38;;;;;;;1.50;1.00;;;15.30;98.20;;;;;;5003540;28;20591;-78
2021/05/17 12:22:08;;;;;;;1.50;1.00;;;15.40;98.20;;;;;;4998129;28;20479;-78
2021/05/17 12:24:35;;;;;;;1.50;1.00;;;15.60;98.20;;;;;;5002572;28;20759;-78
2021/05/17 12:27:03;;;;;;;1.50;1.00;;;15.60;98.10;;;;;;5001396;28;20506;-78
2021/05/17 12:29:45;;;;;;;1.50;0.90;;;15.60;98.20;;;;;;5008226;28;20610;-80
2021/05/17 12:32:12;;;;;;;1.50;0.97;;;15.70;98.20;;;;;;4997673;28;20500;-78
2021/05/17 12:34:51;;;;;;;1.50;1.00;;;15.80;97.80;;;;;;5006559;28;20499;-78
2021/05/17 12:37:17;;;;;;;1.50;1.00;;;15.90;97.50;;;;;;5001068;28;21078;-76
2021/05/17 12:39:44;;;;;;;1.50;1.00;;;16.00;97.90;;;;;;5004426;28;20468;-78
2021/05/17 12:42:13;;;;;;;1.50;1.00;;;16.10;97.70;;;;;;5001999;28;20491;-78
2021/05/17 12:44:41;;;;;;;1.50;1.00;;;16.30;97.40;;;;;;5011392;28;20466;-79
2021/05/17 12:47:10;;;;;;;1.50;0.90;;;16.30;95.90;;;;;;5006079;28;20961;-79
2021/05/17 12:49:49;;;;;;;1.50;0.90;;;16.30;95.50;;;;;;5010056;28;20559;-79
2021/05/17 12:52:26;;;;;;;1.50;0.90;;;16.30;96.20;;;;;;4998453;28;20490;-81
2021/05/17 12:55:17;;;;;;;1.50;1.00;;;16.10;96.60;;;;;;5007784;28;20491;-82
2021/05/17 12:57:50;;;;;;;1.50;1.00;;;15.90;96.90;;;;;;5009489;28;20899;-84
2021/05/17 13:00:39;;;;;;;1.50;1.00;;;15.70;97.80;;;;;;5004940;28;20463;-81
2021/05/17 13:03:08;;;;;;;1.50;0.90;;;15.50;98.20;;;;;;5008549;28;20489;-81
2021/05/17 13:06:08;;;;;;;1.50;1.00;;;15.40;98.20;;;;;;5007398;28;20464;-81
2021/05/17 13:08:52;;;;;;;1.50;1.00;;;15.30;98.20;;;;;;4995903;28;20795;-81
2021/05/17 13:11:29;;;;;;;1.50;0.90;;;15.40;98.20;;;;;;5000235;28;20926;-82